createdAt,value
2024-02-15T00:01:16.686Z,9.90
2024-02-15T00:03:43.876Z,8.17
2024-02-15T00:06:11.097Z,10.93
2024-02-15T00:08:38.419Z,12.13
2024-02-15T00:11:05.736Z,9.47
2024-02-15T00:13:34.926Z,12.37
2024-02-15T00:16:02.250Z,10.90
2024-02-15T00:18:29.525Z,10.60
2024-02-15T00:20:56.696Z,8.63
2024-02-15T00:23:23.958Z,8.33
2024-02-15T00:25:51.175Z,8.27
2024-02-15T00:28:18.531Z,8.30
2024-02-15T00:30:45.662Z,11.10
2024-02-15T00:33:12.930Z,9.63
2024-02-15T00:35:40.517Z,11.93
2024-02-15T00:38:08.407Z,9.30
2024-02-15T00:40:35.800Z,11.47
2024-02-15T00:43:03.030Z,8.87
2024-02-15T00:45:30.080Z,14.30
2024-02-15T00:47:57.523Z,9.10
2024-02-15T00:50:24.910Z,9.93
2024-02-15T00:52:52.106Z,9.90
2024-02-15T00:55:20.556Z,10.80
2024-02-15T00:57:47.726Z,10.83
2024-02-15T01:00:15.487Z,12.63
2024-02-15T01:02:42.731Z,16.50
2024-02-15T01:05:11.170Z,10.83
2024-02-15T01:07:39.025Z,14.20
2024-02-15T01:10:07.384Z,10.20
2024-02-15T01:12:34.645Z,11.27
2024-02-15T01:15:02.680Z,10.67
2024-02-15T01:17:31.616Z,11.43
2024-02-15T01:19:58.802Z,7.77
2024-02-15T01:22:28.416Z,9.67
2024-02-15T01:24:58.313Z,10.93
2024-02-15T01:27:25.543Z,9.30
2024-02-15T01:29:53.048Z,9.53
2024-02-15T01:32:20.143Z,11.50
2024-02-15T01:34:47.137Z,12.43
2024-02-15T01:37:14.235Z,8.67
2024-02-15T01:39:41.646Z,9.03
2024-02-15T01:42:08.789Z,13.77
2024-02-15T01:44:38.049Z,12.30
2024-02-15T01:47:05.697Z,9.53
2024-02-15T01:49:33.466Z,12.17
2024-02-15T01:52:03.658Z,16.97
2024-02-15T01:54:32.724Z,9.40
2024-02-15T01:56:59.865Z,7.57
2024-02-15T01:59:27.282Z,5.67
2024-02-15T02:01:54.530Z,10.53
2024-02-15T02:04:22.197Z,8.53
2024-02-15T02:06:49.420Z,12.80
2024-02-15T02:09:17.243Z,16.47
2024-02-15T02:11:47.884Z,9.40
2024-02-15T02:14:15.419Z,8.93
2024-02-15T02:16:43.062Z,10.43
2024-02-15T02:19:11.052Z,7.90
2024-02-15T02:21:41.243Z,13.73
2024-02-15T02:24:23.910Z,10.50
2024-02-15T02:26:51.262Z,12.53
2024-02-15T02:29:20.024Z,14.03
2024-02-15T02:31:48.080Z,10.47
2024-02-15T02:34:16.044Z,11.67
2024-02-15T02:36:47.563Z,11.67
2024-02-15T02:39:14.678Z,7.97
2024-02-15T02:41:41.833Z,11.10
2024-02-15T02:44:08.833Z,12.93
2024-02-15T02:46:36.830Z,10.90
2024-02-15T02:49:04.090Z,8.97
2024-02-15T02:51:31.295Z,11.67
2024-02-15T02:53:58.343Z,10.37
2024-02-15T02:56:25.438Z,14.43
2024-02-15T02:58:53.504Z,15.70
2024-02-15T03:01:20.482Z,11.70
2024-02-15T03:03:49.088Z,6.40
2024-02-15T03:06:16.384Z,9.13
2024-02-15T03:08:44.140Z,9.33
2024-02-15T03:11:11.306Z,9.83
2024-02-15T03:13:38.931Z,9.57
2024-02-15T03:16:06.911Z,8.43
2024-02-15T03:18:34.564Z,9.37
2024-02-15T03:21:01.845Z,14.53
2024-02-15T03:23:30.211Z,10.57
2024-02-15T03:25:57.193Z,7.40
2024-02-15T03:28:25.583Z,15.00
2024-02-15T03:30:53.893Z,13.17
2024-02-15T03:33:22.235Z,12.67
2024-02-15T03:35:49.419Z,14.90
2024-02-15T03:38:16.505Z,9.53
2024-02-15T03:40:43.503Z,15.13
2024-02-15T03:43:10.532Z,15.27
2024-02-15T03:45:38.131Z,11.50
2024-02-15T03:48:06.830Z,8.07
2024-02-15T03:50:34.341Z,8.37
2024-02-15T03:53:02.633Z,9.63
2024-02-15T03:55:29.836Z,10.57
2024-02-15T03:57:58.341Z,13.03
2024-02-15T04:00:26.776Z,8.40
2024-02-15T04:02:55.262Z,6.90
2024-02-15T04:05:24.450Z,10.40
2024-02-15T04:07:53.867Z,8.70
2024-02-15T04:10:21.066Z,6.20
2024-02-15T04:13:04.099Z,10.13
2024-02-15T04:15:31.716Z,7.43
2024-02-15T04:17:59.743Z,12.67
2024-02-15T04:20:27.791Z,10.67
2024-02-15T04:22:55.848Z,5.80
2024-02-15T04:25:28.977Z,11.43
2024-02-15T04:27:58.969Z,15.07
2024-02-15T04:30:26.457Z,12.23
2024-02-15T04:32:54.338Z,11.67
2024-02-15T04:35:21.439Z,9.47
2024-02-15T04:37:50.438Z,9.30
2024-02-15T04:40:19.532Z,12.23
2024-02-15T04:42:48.442Z,10.97
2024-02-15T04:45:17.123Z,10.33
2024-02-15T04:48:05.117Z,11.97
2024-02-15T04:50:32.801Z,9.53
2024-02-15T04:52:59.904Z,11.90
2024-02-15T04:55:27.746Z,15.77
2024-02-15T04:57:56.819Z,15.07
2024-02-15T05:00:27.174Z,11.13
2024-02-15T05:02:54.477Z,11.87
2024-02-15T05:05:23.105Z,11.67
2024-02-15T05:07:53.185Z,9.50
2024-02-15T05:10:20.375Z,15.87
2024-02-15T05:12:49.600Z,8.90
2024-02-15T05:15:19.645Z,10.00
2024-02-15T05:17:47.358Z,14.20
2024-02-15T05:20:15.057Z,11.07
2024-02-15T05:22:50.049Z,13.53
2024-02-15T05:25:25.016Z,12.15
2024-02-15T05:27:55.489Z,12.57
2024-02-15T05:30:24.354Z,20.20
2024-02-15T05:32:54.105Z,15.20
2024-02-15T05:35:21.321Z,8.67
2024-02-15T05:37:48.302Z,10.77
2024-02-15T05:40:19.091Z,11.43
2024-02-15T05:42:47.669Z,8.40
2024-02-15T05:45:26.859Z,16.33
2024-02-15T05:47:54.776Z,16.30
2024-02-15T05:50:22.668Z,12.30
2024-02-15T05:52:50.101Z,16.53
2024-02-15T05:55:20.186Z,11.13
2024-02-15T05:57:47.504Z,12.10
2024-02-15T06:00:21.887Z,11.57
2024-02-15T06:02:51.483Z,10.98
2024-02-15T06:05:19.450Z,12.60
2024-02-15T06:07:48.138Z,11.53
2024-02-15T06:10:16.750Z,15.50
2024-02-15T06:12:44.100Z,15.00
2024-02-15T06:15:17.130Z,12.00
2024-02-15T06:17:45.563Z,13.07
2024-02-15T06:20:15.890Z,12.43
2024-02-15T06:22:43.780Z,14.80
2024-02-15T06:25:14.666Z,11.57
2024-02-15T06:27:43.644Z,15.53
2024-02-15T06:30:30.314Z,12.87
2024-02-15T06:33:17.238Z,13.68
2024-02-15T06:36:02.930Z,8.23
2024-02-15T06:38:48.712Z,10.00
2024-02-15T06:41:15.735Z,13.37
2024-02-15T06:43:42.754Z,13.27
2024-02-15T06:46:12.189Z,12.97
2024-02-15T06:48:39.436Z,15.13
2024-02-15T06:51:07.474Z,13.73
2024-02-15T06:53:34.664Z,11.57
2024-02-15T06:56:01.888Z,13.47
2024-02-15T06:58:28.989Z,15.20
2024-02-15T07:00:56.169Z,13.77
2024-02-15T07:03:25.069Z,10.90
2024-02-15T07:05:52.129Z,14.87
2024-02-15T07:08:19.167Z,16.77
2024-02-15T07:10:46.088Z,20.80
2024-02-15T07:13:13.108Z,12.87
2024-02-15T07:15:40.411Z,9.93
2024-02-15T07:18:07.944Z,13.80
2024-02-15T07:20:35.719Z,19.17
2024-02-15T07:23:03.067Z,14.50
2024-02-15T07:25:30.652Z,15.10
2024-02-15T07:27:57.977Z,12.13
2024-02-15T07:30:26.122Z,15.60
2024-02-15T07:32:53.862Z,13.20
2024-02-15T07:35:20.995Z,14.17
2024-02-15T07:38:00.009Z,14.90
2024-02-15T07:40:29.829Z,15.07
2024-02-15T07:42:59.258Z,9.17
2024-02-15T07:45:26.359Z,15.13
2024-02-15T07:47:53.541Z,14.10
2024-02-15T07:50:22.173Z,10.43
2024-02-15T07:52:49.436Z,12.00
2024-02-15T07:55:16.604Z,15.80
2024-02-15T07:57:43.577Z,11.30
2024-02-15T08:00:11.763Z,14.13
2024-02-15T08:02:41.994Z,16.40
2024-02-15T08:05:11.469Z,11.00
2024-02-15T08:07:46.243Z,11.33
2024-02-15T08:10:16.414Z,11.80
2024-02-15T08:12:44.752Z,14.97
2024-02-15T08:15:16.038Z,12.43
2024-02-15T08:17:47.494Z,11.60
2024-02-15T08:20:15.877Z,13.27
2024-02-15T08:22:45.114Z,14.80
2024-02-15T08:25:14.129Z,29.30
2024-02-15T08:27:44.224Z,16.83
2024-02-15T08:30:13.311Z,13.80
2024-02-15T08:32:43.217Z,29.17
2024-02-15T08:35:11.824Z,16.93
2024-02-15T08:37:40.242Z,11.70
2024-02-15T08:40:12.064Z,11.83
2024-02-15T08:42:41.370Z,10.10
2024-02-15T08:45:12.247Z,16.93
2024-02-15T08:47:40.585Z,17.87
2024-02-15T08:50:12.474Z,19.30
2024-02-15T08:52:40.635Z,13.93
2024-02-15T08:55:11.729Z,14.87
2024-02-15T08:57:42.054Z,15.00
2024-02-15T09:00:15.061Z,14.90
2024-02-15T09:02:46.094Z,12.63
2024-02-15T09:05:16.007Z,24.57
2024-02-15T09:07:44.084Z,16.53
2024-02-15T09:10:12.720Z,13.17
2024-02-15T09:12:41.256Z,13.83
2024-02-15T09:15:18.483Z,15.20
2024-02-15T09:17:47.679Z,12.07
2024-02-15T09:20:19.500Z,15.17
2024-02-15T09:22:51.282Z,16.00
2024-02-15T09:25:19.643Z,16.30
2024-02-15T09:27:49.565Z,17.30
2024-02-15T09:30:19.616Z,15.33
2024-02-15T09:32:47.373Z,13.13
2024-02-15T09:35:15.077Z,18.07
2024-02-15T09:37:50.778Z,13.40
2024-02-15T09:40:19.332Z,17.20
2024-02-15T09:42:47.854Z,17.17
2024-02-15T09:45:19.703Z,15.47
2024-02-15T09:47:47.884Z,16.23
2024-02-15T09:50:16.954Z,15.67
2024-02-15T09:52:58.023Z,14.83
2024-02-15T09:55:26.819Z,14.87
2024-02-15T09:57:53.817Z,18.73
2024-02-15T10:00:22.313Z,19.80
2024-02-15T10:02:52.048Z,13.37
2024-02-15T10:05:19.298Z,18.70
2024-02-15T10:07:47.561Z,15.57
2024-02-15T10:10:22.348Z,17.17
2024-02-15T10:12:55.349Z,17.47
2024-02-15T10:15:33.944Z,47.40
2024-02-15T10:18:07.461Z,14.83
2024-02-15T10:20:36.491Z,20.73
2024-02-15T10:23:08.252Z,19.03
2024-02-15T10:25:35.922Z,19.27
2024-02-15T10:28:09.859Z,14.53
2024-02-15T10:30:38.424Z,19.63
2024-02-15T10:33:06.555Z,16.20
2024-02-15T10:35:36.740Z,20.73
2024-02-15T10:38:09.170Z,19.93
2024-02-15T10:40:36.945Z,16.40
2024-02-15T10:43:06.999Z,19.53
2024-02-15T10:45:37.774Z,19.80
2024-02-15T10:48:11.622Z,14.27
2024-02-15T10:50:41.735Z,20.40
2024-02-15T10:53:33.880Z,17.27
2024-02-15T10:56:27.833Z,14.47
2024-02-15T10:59:25.056Z,19.73
2024-02-15T11:01:58.766Z,22.42
2024-02-15T11:04:33.464Z,14.77
2024-02-15T11:07:02.908Z,15.00
2024-02-15T11:09:31.273Z,18.03
2024-02-15T11:11:59.187Z,21.23
2024-02-15T11:14:36.194Z,16.07
2024-02-15T11:17:04.656Z,17.03
2024-02-15T11:19:37.705Z,14.73
2024-02-15T11:22:13.291Z,20.20
2024-02-15T11:24:53.216Z,25.20
2024-02-15T11:27:31.368Z,16.13
2024-02-15T11:30:05.111Z,18.67
2024-02-15T11:32:50.675Z,18.77
2024-02-15T11:35:19.519Z,15.30
2024-02-15T11:37:52.493Z,17.73
2024-02-15T11:40:30.816Z,13.20
2024-02-15T11:43:01.373Z,20.33
2024-02-15T11:45:39.832Z,16.10
2024-02-15T11:48:14.600Z,20.67
2024-02-15T11:50:42.493Z,14.77
2024-02-15T11:53:13.383Z,19.17
2024-02-15T11:55:42.849Z,16.00
2024-02-15T11:58:11.625Z,13.87
2024-02-15T12:00:58.565Z,17.93
2024-02-15T12:03:56.652Z,17.97
2024-02-15T12:06:50.989Z,20.23
2024-02-15T12:09:40.644Z,26.13
2024-02-15T12:12:26.301Z,12.70
2024-02-15T12:15:19.335Z,20.83
2024-02-15T12:18:05.223Z,16.77
2024-02-15T12:20:33.546Z,18.00
2024-02-15T12:23:03.724Z,19.37
2024-02-15T12:25:34.585Z,18.00
2024-02-15T12:28:03.167Z,16.97
2024-02-15T12:30:37.911Z,17.77
2024-02-15T12:33:13.098Z,18.10
2024-02-15T12:35:40.267Z,14.20
2024-02-15T12:38:07.259Z,15.73
2024-02-15T12:40:37.423Z,15.50
2024-02-15T12:43:09.678Z,13.20
2024-02-15T12:45:38.307Z,20.77
2024-02-15T12:48:10.043Z,14.03
2024-02-15T12:50:37.700Z,18.63
2024-02-15T12:53:04.929Z,18.80
2024-02-15T12:55:36.465Z,18.30
2024-02-15T12:58:10.547Z,15.57
2024-02-15T13:00:41.305Z,17.87
2024-02-15T13:03:11.582Z,15.23
2024-02-15T13:05:39.717Z,18.50
2024-02-15T13:08:11.068Z,17.63
2024-02-15T13:10:40.809Z,14.37
2024-02-15T13:13:10.797Z,16.60
2024-02-15T13:15:38.702Z,17.00
2024-02-15T13:18:06.790Z,15.43
2024-02-15T13:20:35.956Z,17.73
2024-02-15T13:23:10.331Z,17.37
2024-02-15T13:25:41.138Z,18.23
2024-02-15T13:28:11.607Z,18.27
2024-02-15T13:30:38.745Z,21.83
2024-02-15T13:33:06.156Z,18.13
2024-02-15T13:35:33.632Z,20.47
2024-02-15T13:38:00.687Z,19.17
2024-02-15T13:40:29.436Z,23.93
2024-02-15T13:43:00.124Z,17.33
2024-02-15T13:45:34.080Z,20.83
2024-02-15T13:48:02.735Z,23.87
2024-02-15T13:50:31.503Z,17.50
2024-02-15T13:53:01.742Z,21.07
2024-02-15T13:55:29.524Z,24.00
2024-02-15T13:57:58.106Z,16.33
2024-02-15T14:00:35.478Z,17.60
2024-02-15T14:03:04.522Z,16.77
2024-02-15T14:05:32.441Z,15.23
2024-02-15T14:08:01.771Z,19.23
2024-02-15T14:10:36.258Z,21.90
2024-02-15T14:13:07.217Z,21.17
2024-02-15T14:15:38.440Z,19.80
2024-02-15T14:18:18.132Z,20.37
2024-02-15T14:20:48.312Z,18.20
2024-02-15T14:23:16.469Z,23.27
2024-02-15T14:25:47.284Z,17.80
2024-02-15T14:28:16.293Z,14.37
2024-02-15T14:31:02.326Z,16.97
2024-02-15T14:36:01.155Z,15.97
2024-02-15T14:38:28.807Z,21.87
2024-02-15T14:40:57.104Z,18.60
2024-02-15T14:43:28.561Z,17.87
2024-02-15T14:45:58.314Z,21.70
2024-02-15T14:48:26.525Z,20.07
2024-02-15T14:50:54.804Z,29.90
2024-02-15T14:53:22.532Z,18.23
2024-02-15T14:55:50.912Z,20.17
2024-02-15T14:58:18.833Z,20.00
2024-02-15T15:00:47.669Z,17.43
2024-02-15T15:03:17.174Z,20.03
2024-02-15T15:06:13.792Z,23.37
2024-02-15T15:08:59.698Z,19.97
2024-02-15T15:11:45.388Z,20.67
2024-02-15T15:14:12.871Z,18.73
2024-02-15T15:16:39.870Z,17.57
2024-02-15T15:19:06.955Z,20.53
2024-02-15T15:21:34.044Z,24.40
2024-02-15T15:24:01.151Z,18.67
2024-02-15T15:26:28.180Z,17.30
2024-02-15T15:28:58.117Z,21.20
2024-02-15T15:31:27.276Z,19.30
2024-02-15T15:33:56.862Z,20.90
2024-02-15T15:36:24.143Z,21.93
2024-02-15T15:38:51.623Z,16.30
2024-02-15T15:41:19.813Z,18.93
2024-02-15T15:43:47.494Z,22.77
2024-02-15T15:46:17.610Z,15.40
2024-02-15T15:48:48.077Z,16.50
2024-02-15T15:51:16.143Z,19.90
2024-02-15T15:53:46.379Z,25.57
2024-02-15T15:56:14.420Z,18.03
2024-02-15T15:58:43.731Z,18.77
2024-02-15T16:01:13.778Z,16.17
2024-02-15T16:03:41.550Z,18.93
2024-02-15T16:06:13.746Z,18.70
2024-02-15T16:08:40.928Z,22.70
2024-02-15T16:11:08.255Z,16.97
2024-02-15T16:13:36.038Z,23.83
2024-02-15T16:16:05.514Z,21.87
2024-02-15T16:18:32.867Z,19.60
2024-02-15T16:21:00.103Z,20.27
2024-02-15T16:23:27.075Z,22.30
2024-02-15T16:25:54.274Z,21.33
2024-02-15T16:28:21.218Z,17.17
2024-02-15T16:30:49.818Z,20.50
2024-02-15T16:33:17.210Z,18.33
2024-02-15T16:35:44.955Z,19.47
2024-02-15T16:38:11.971Z,19.33
2024-02-15T16:40:39.025Z,21.03
2024-02-15T16:43:06.331Z,20.93
2024-02-15T16:45:34.809Z,19.87
2024-02-15T16:48:02.503Z,21.20
2024-02-15T16:50:30.223Z,17.83
2024-02-15T16:52:58.294Z,21.17
2024-02-15T16:55:31.247Z,19.70
2024-02-15T16:58:03.826Z,20.60
2024-02-15T17:00:32.076Z,15.67
2024-02-15T17:02:59.469Z,19.23
2024-02-15T17:05:27.696Z,18.53
2024-02-15T17:07:57.575Z,22.60
2024-02-15T17:10:29.718Z,19.17
2024-02-15T17:12:56.852Z,22.10
2024-02-15T17:15:27.521Z,19.33
2024-02-15T17:17:55.629Z,22.13
2024-02-15T17:20:24.918Z,17.17
2024-02-15T17:22:53.449Z,20.53
2024-02-15T17:25:24.608Z,20.40
2024-02-15T17:27:56.021Z,19.63
2024-02-15T17:30:23.250Z,16.00
2024-02-15T17:32:50.322Z,21.40
2024-02-15T17:35:18.552Z,15.30
2024-02-15T17:37:45.805Z,23.47
2024-02-15T17:40:13.613Z,18.67
2024-02-15T17:42:42.099Z,18.37
2024-02-15T17:45:14.701Z,23.03
2024-02-15T17:47:45.222Z,22.57
2024-02-15T17:50:15.800Z,16.00
2024-02-15T17:52:46.850Z,18.70
2024-02-15T17:55:16.058Z,18.70
2024-02-15T17:57:47.027Z,20.97
2024-02-15T18:00:17.199Z,23.07
2024-02-15T18:02:50.261Z,18.03
2024-02-15T18:05:20.328Z,20.73
2024-02-15T18:07:48.422Z,15.23
2024-02-15T18:10:21.538Z,17.87
2024-02-15T18:12:48.758Z,16.60
2024-02-15T18:15:26.865Z,17.70
2024-02-15T18:17:57.321Z,21.07
2024-02-15T18:20:25.381Z,24.67
2024-02-15T18:22:53.648Z,19.90
2024-02-15T18:25:20.778Z,17.87
2024-02-15T18:27:48.251Z,21.33
2024-02-15T18:30:19.878Z,21.30
2024-02-15T18:32:48.845Z,20.43
2024-02-15T18:35:17.872Z,19.00
2024-02-15T18:37:47.098Z,19.33
2024-02-15T18:40:22.795Z,16.90
2024-02-15T18:42:54.172Z,18.93
2024-02-15T18:45:21.745Z,17.50
2024-02-15T18:47:49.255Z,17.03
2024-02-15T18:50:20.377Z,15.83
2024-02-15T18:52:47.827Z,20.90
2024-02-15T18:55:14.759Z,19.67
2024-02-15T18:57:41.787Z,18.67
2024-02-15T19:00:23.440Z,17.23
2024-02-15T19:02:58.652Z,22.67
2024-02-15T19:05:26.417Z,20.90
2024-02-15T19:07:53.686Z,22.33
2024-02-15T19:10:22.978Z,18.43
2024-02-15T19:12:52.308Z,19.10
2024-02-15T19:15:19.248Z,23.50
2024-02-15T19:17:46.747Z,19.90
2024-02-15T19:20:14.086Z,17.87
2024-02-15T19:22:43.642Z,17.33
2024-02-15T19:25:19.376Z,19.13
2024-02-15T19:27:47.437Z,23.85
2024-02-15T19:30:14.903Z,21.40
2024-02-15T19:32:42.380Z,18.17
2024-02-15T19:35:09.753Z,19.77
2024-02-15T19:37:37.064Z,20.10
2024-02-15T19:40:12.383Z,19.53
2024-02-15T19:42:40.129Z,20.90
2024-02-15T19:45:07.498Z,17.20
2024-02-15T19:47:34.511Z,19.53
2024-02-15T19:50:01.968Z,17.93
2024-02-15T19:52:29.022Z,19.33
2024-02-15T19:54:59.707Z,18.53
2024-02-15T19:57:27.697Z,24.63
2024-02-15T19:59:55.449Z,18.60
2024-02-15T20:02:22.747Z,21.33
2024-02-15T20:04:50.783Z,18.40
2024-02-15T20:07:20.074Z,17.30
2024-02-15T20:09:48.618Z,18.90
2024-02-15T20:12:16.258Z,19.40
2024-02-15T20:14:43.587Z,19.63
2024-02-15T20:17:12.412Z,19.97
2024-02-15T20:19:39.877Z,19.43
2024-02-15T20:22:09.855Z,17.13
2024-02-15T20:24:39.412Z,19.63
2024-02-15T20:27:06.794Z,18.60
2024-02-15T20:29:35.253Z,22.47
2024-02-15T20:32:02.206Z,25.63
2024-02-15T20:34:29.145Z,18.70
2024-02-15T20:36:56.272Z,26.10
2024-02-15T20:39:23.340Z,20.23
2024-02-15T20:41:50.845Z,25.33
2024-02-15T20:44:18.402Z,20.33
2024-02-15T20:46:45.799Z,18.43
2024-02-15T20:49:14.421Z,17.93
2024-02-15T20:51:41.988Z,21.20
2024-02-15T20:54:09.218Z,20.57
2024-02-15T20:56:38.197Z,22.33
2024-02-15T20:59:07.980Z,19.40
2024-02-15T21:01:37.826Z,23.57
2024-02-15T21:04:06.864Z,22.90
2024-02-15T21:06:38.994Z,19.43
2024-02-15T21:09:14.475Z,21.93
2024-02-15T21:11:44.776Z,22.67
2024-02-15T21:14:15.533Z,24.03
2024-02-15T21:16:43.400Z,22.70
2024-02-15T21:19:11.000Z,20.53
2024-02-15T21:21:39.221Z,25.30
2024-02-15T21:24:07.574Z,16.70
2024-02-15T21:26:35.790Z,23.77
2024-02-15T21:29:06.280Z,22.27
2024-02-15T21:31:35.356Z,21.87
2024-02-15T21:34:09.407Z,17.67
2024-02-15T21:36:38.365Z,24.53
2024-02-15T21:39:06.875Z,23.07
2024-02-15T21:41:36.365Z,20.30
2024-02-15T21:44:03.536Z,19.70
2024-02-15T21:46:30.981Z,21.80
2024-02-15T21:48:58.115Z,19.50
2024-02-15T21:51:25.384Z,18.90
2024-02-15T21:53:53.329Z,20.03
2024-02-15T21:56:20.791Z,24.73
2024-02-15T21:58:48.670Z,22.57
2024-02-15T22:01:16.203Z,20.03
2024-02-15T22:03:44.167Z,19.27
2024-02-15T22:06:12.795Z,22.77
2024-02-15T22:08:40.141Z,23.30
2024-02-15T22:11:07.408Z,22.53
2024-02-15T22:13:34.545Z,17.63
2024-02-15T22:16:01.567Z,18.83
2024-02-15T22:18:28.721Z,24.00
2024-02-15T22:20:58.779Z,21.00
2024-02-15T22:23:25.980Z,23.27
2024-02-15T22:25:52.983Z,21.30
2024-02-15T22:28:20.067Z,21.07
2024-02-15T22:30:47.009Z,21.80
2024-02-15T22:33:14.144Z,23.47
2024-02-15T22:35:41.316Z,23.13
2024-02-15T22:38:08.319Z,25.13
2024-02-15T22:40:37.686Z,18.70
2024-02-15T22:43:08.697Z,22.30
2024-02-15T22:45:36.343Z,21.53
2024-02-15T22:48:04.387Z,22.57
2024-02-15T22:50:31.966Z,22.27
2024-02-15T22:52:59.146Z,25.23
2024-02-15T22:55:27.413Z,21.57
2024-02-15T22:57:54.715Z,22.50
2024-02-15T23:00:22.289Z,23.37
2024-02-15T23:02:49.530Z,25.17
2024-02-15T23:05:19.780Z,19.43
2024-02-15T23:07:47.129Z,26.70
2024-02-15T23:10:14.745Z,37.77
2024-02-15T23:12:41.714Z,20.03
2024-02-15T23:15:09.248Z,20.70
2024-02-15T23:17:36.892Z,25.00
2024-02-15T23:20:05.831Z,21.83
2024-02-15T23:22:33.908Z,25.93
2024-02-15T23:25:03.893Z,25.63
2024-02-15T23:27:30.980Z,23.37
2024-02-15T23:29:57.970Z,23.50
2024-02-15T23:32:26.205Z,25.40
2024-02-15T23:34:55.240Z,22.70
2024-02-15T23:37:40.843Z,28.57
2024-02-15T23:40:23.060Z,26.33
2024-02-15T23:42:53.520Z,25.57
2024-02-15T23:45:22.236Z,23.17
2024-02-15T23:47:50.935Z,22.53
2024-02-15T23:50:20.666Z,23.73
2024-02-15T23:52:48.038Z,25.87
2024-02-15T23:55:16.524Z,29.67
2024-02-15T23:57:46.169Z,26.07
